Time;durP1;ratioP1;P1;durP2;ratioP2;P2;SDS_P1;SDS_P2;PMS_P1;PMS_P2;Temp;Humidity;BMP_temperature;BMP_pressure;BME280_temperature;BME280_humidity;BME280_pressure;Samples;Min_cycle;Max_cycle;Signal;HPM_P1;HPM_P2
2022/08/11 00:01:46;;;;;;;7.00;3.00;;;;;;;-143.84;69.48;45010.97;5139332;27;20489;-77
2022/08/11 00:04:15;;;;;;;3.67;2.70;;;;;;;-143.84;69.44;45022.41;5118714;27;20452;-77
2022/08/11 00:06:44;;;;;;;3.77;3.00;;;;;;;-143.84;69.22;45026.22;5114631;27;20999;-77
2022/08/11 00:09:17;;;;;;;3.00;2.70;;;;;;;-143.84;69.28;45016.69;5135347;27;20455;-79
2022/08/11 00:11:46;;;;;;;22.10;2.63;;;;;;;-143.84;69.14;45018.59;5137650;27;20525;-77
2022/08/11 00:14:16;;;;;;;2.63;2.43;;;;;;;-143.84;69.17;45010.97;5128713;27;20442;-78
2022/08/11 00:16:53;;;;;;;4.23;3.03;;;;;;;-143.84;68.81;45024.31;5126341;27;20449;-78
2022/08/11 00:19:23;;;;;;;2.80;2.60;;;;;;;-143.84;68.95;45012.88;5149022;27;20441;-77
2022/08/11 00:21:50;;;;;;;6.53;2.90;;;;;;;-143.84;68.92;45020.50;5139713;27;21026;-77
2022/08/11 00:24:22;;;;;;;2.50;2.30;;;;;;;-143.84;68.92;45016.69;5126603;27;20480;-79
2022/08/11 00:26:50;;;;;;;3.30;2.50;;;;;;;-143.84;68.85;45014.78;5129404;27;20459;-79
2022/08/11 00:29:18;;;;;;;5.67;2.40;;;;;;;-143.84;68.92;45012.88;5124408;27;20447;-77
2022/08/11 00:31:50;;;;;;;4.53;2.80;;;;;;;-143.84;69.17;45030.03;5119484;27;20472;-78
2022/08/11 00:34:21;;;;;;;3.03;2.83;;;;;;;-143.84;69.09;45033.84;5113620;28;21226;-78
2022/08/11 00:36:52;;;;;;;8.83;3.17;;;;;;;-143.84;69.19;45030.03;5132948;27;20437;-78
2022/08/11 00:39:24;;;;;;;6.27;2.50;;;;;;;-143.84;69.37;45024.31;5128358;27;20443;-78
2022/08/11 00:42:07;;;;;;;2.50;2.30;;;;;;;-143.84;69.25;44999.56;5133850;27;20468;-78
2022/08/11 00:44:45;;;;;;;2.43;2.23;;;;;;;-143.84;69.46;45030.03;5121376;27;20931;-78
2022/08/11 00:47:24;;;;;;;4.83;2.63;;;;;;;-143.84;69.37;45035.75;5128147;27;20427;-77
2022/08/11 00:50:16;;;;;;;3.13;2.83;;;;;;;-143.84;69.71;45022.41;5124354;27;20455;-78
2022/08/11 00:53:06;;;;;;;4.03;2.80;;;;;;;-143.84;69.75;45030.03;5135116;27;20456;-78
2022/08/11 00:56:12;;;;;;;4.80;2.80;;;;;;;-143.84;69.69;45031.94;5141345;27;20978;-78
2022/08/11 00:59:14;;;;;;;7.00;2.87;;;;;;;-143.84;69.71;45024.31;5148262;27;20475;-78
2022/08/11 01:01:58;;;;;;;3.97;2.93;;;;;;;-143.84;69.29;44997.66;5136500;27;20490;-77
2022/08/11 01:05:17;;;;;;;4.50;3.10;;;;;;;-143.84;69.26;45030.03;5118674;27;20437;-78
2022/08/11 01:08:32;;;;;;;5.40;3.10;;;;;;;-143.84;69.43;45028.13;5116464;27;20442;-78
2022/08/11 01:11:29;;;;;;;5.20;3.00;;;;;;;-143.84;69.43;45047.16;5101605;27;20959;-78
2022/08/11 01:14:25;;;;;;;4.20;3.43;;;;;;;-143.84;69.36;45020.50;5137575;27;20452;-78
2022/08/11 01:17:44;;;;;;;4.33;3.00;;;;;;;-143.84;69.30;45030.03;5125219;27;20524;-78
2022/08/11 01:20:59;;;;;;;3.13;2.93;;;;;;;-143.84;69.38;45030.03;5081423;27;20793;-77
2022/08/11 01:24:02;;;;;;;8.10;3.20;;;;;;;-143.84;69.32;45045.25;5114043;27;20460;-77
2022/08/11 01:27:17;;;;;;;3.83;3.53;;;;;;;-143.84;69.09;45030.03;5121364;27;20499;-79
2022/08/11 01:30:29;;;;;;;3.33;3.10;;;;;;;-143.84;69.15;45012.88;5064786;27;20787;-78
2022/08/11 01:33:29;;;;;;;5.13;3.40;;;;;;;-143.84;69.25;45028.13;5135394;27;20452;-78
2022/08/11 01:36:49;;;;;;;4.03;3.53;;;;;;;-143.84;69.32;45035.75;5116220;27;20506;-78
2022/08/11 01:39:49;;;;;;;21.03;3.93;;;;;;;-143.84;69.41;45033.84;5055478;28;20482;-78
2022/08/11 01:45:37;;;;;;;3.37;3.13;;;;;;;-143.84;69.06;45022.41;5128645;27;20417;-77
2022/08/11 01:48:10;;;;;;;3.70;3.50;;;;;;;-143.84;69.08;45020.50;5112155;28;20446;-78
2022/08/11 01:51:18;;;;;;;3.10;2.90;;;;;;;-143.84;69.21;45016.69;5118518;27;20450;-78
2022/08/11 01:53:55;;;;;;;3.20;3.00;;;;;;;-143.84;69.15;45041.44;5123865;27;20442;-78
2022/08/11 01:56:35;;;;;;;3.77;3.50;;;;;;;-143.84;69.26;45041.44;5136070;27;20460;-78
2022/08/11 01:59:14;;;;;;;4.20;3.90;;;;;;;-143.84;69.03;45022.41;5126950;27;20452;-77
2022/08/11 02:02:05;;;;;;;5.30;3.30;;;;;;;-143.84;69.22;45030.03;5115415;27;20494;-78
2022/08/11 02:04:38;;;;;;;3.80;3.50;;;;;;;-143.84;69.00;45041.44;5109966;28;20438;-77
2022/08/11 02:07:17;;;;;;;4.50;3.40;;;;;;;-143.84;68.95;45031.94;5109278;28;20442;-78
2022/08/11 02:13:07;;;;;;;5.27;3.70;;;;;;;-143.84;68.80;45022.41;5103516;27;20530;-78
2022/08/11 02:15:39;;;;;;;5.57;5.07;;;;;;;-143.84;68.70;45010.97;5112047;28;20438;-78
2022/08/11 02:18:10;;;;;;;4.00;3.73;;;;;;;-143.84;68.71;45043.34;5111959;28;20974;-77
2022/08/11 02:23:42;;;;;;;4.37;4.00;;;;;;;-143.84;68.69;45056.69;5112192;28;20429;-80
2022/08/11 02:26:26;;;;;;;4.33;3.93;;;;;;;-143.84;68.50;45043.34;5113523;28;20461;-80
2022/08/11 02:29:04;;;;;;;4.37;3.90;;;;;;;-143.84;68.49;45052.88;5114720;28;20431;-80
2022/08/11 02:34:39;;;;;;;5.80;4.63;;;;;;;-143.84;68.71;45028.13;5153416;27;20926;-79
2022/08/11 02:37:17;;;;;;;7.20;4.97;;;;;;;-143.84;68.56;45043.34;5154781;27;20493;-80
2022/08/11 02:39:56;;;;;;;4.97;4.57;;;;;;;-143.84;68.69;45039.53;5156734;27;20946;-79
2022/08/11 02:42:32;;;;;;;8.10;4.60;;;;;;;-143.84;68.48;45022.41;5153919;27;20464;-78
2022/08/11 02:45:17;;;;;;;5.40;4.10;;;;;;;-143.84;68.58;45012.88;5153241;27;20447;-78
2022/08/11 02:50:42;;;;;;;5.80;3.90;;;;;;;-143.84;68.72;45020.50;5152066;27;20570;-78
2022/08/11 02:53:16;;;;;;;4.40;4.00;;;;;;;-143.84;68.66;45033.84;5137760;27;20445;-78
2022/08/11 02:55:54;;;;;;;5.07;4.53;;;;;;;-143.84;68.80;45020.50;5132577;28;20452;-78
2022/08/11 02:58:37;;;;;;;8.10;4.30;;;;;;;-143.84;68.84;45030.03;5132052;28;20501;-78
2022/08/11 03:01:13;;;;;;;4.47;4.17;;;;;;;-143.84;69.03;45020.50;5133566;27;20517;-78
2022/08/11 03:03:53;;;;;;;4.93;4.53;;;;;;;-143.84;68.92;45037.66;5152972;27;20492;-80
2022/08/11 03:06:29;;;;;;;4.00;3.70;;;;;;;-143.84;68.98;45014.78;5153165;27;20505;-79
2022/08/11 03:09:04;;;;;;;4.33;4.00;;;;;;;-143.84;69.02;45022.41;5155404;27;20432;-80
2022/08/11 03:17:29;;;;;;;6.40;4.00;;;;;;;-143.84;69.03;45018.59;5111061;28;20500;-79
2022/08/11 03:20:23;;;;;;;4.60;4.30;;;;;;;-143.84;69.04;45033.84;5110864;28;20445;-76
2022/08/11 03:22:59;;;;;;;4.23;3.80;;;;;;;-143.84;68.99;45028.13;5110426;27;20488;-76
2022/08/11 03:25:33;;;;;;;3.90;3.50;;;;;;;-143.84;68.80;45016.69;5133656;27;20476;-76
2022/08/11 03:28:13;;;;;;;4.47;3.70;;;;;;;-143.84;68.69;45022.41;5134117;27;20445;-76
2022/08/11 03:30:53;;;;;;;6.70;4.20;;;;;;;-143.84;68.78;45014.78;5134135;27;20437;-76
2022/08/11 03:36:22;;;;;;;5.03;4.03;;;;;;;-143.84;68.83;45010.97;5134412;27;20528;-76
2022/08/11 03:39:01;;;;;;;3.60;3.30;;;;;;;-143.84;68.78;45030.03;5134152;27;20796;-75
2022/08/11 03:41:43;;;;;;;4.40;3.87;;;;;;;-143.84;68.99;45014.78;5117562;27;20537;-76
2022/08/11 03:44:25;;;;;;;4.33;3.93;;;;;;;-143.84;68.88;45039.53;5113280;28;20445;-76
2022/08/11 03:47:18;;;;;;;8.10;4.53;;;;;;;-143.84;68.75;45024.31;5113266;28;20442;-76
2022/08/11 03:50:01;;;;;;;3.87;3.60;;;;;;;-143.84;68.56;45041.44;5113418;28;20453;-76
2022/08/11 03:52:48;;;;;;;4.13;3.80;;;;;;;-143.84;67.34;45028.13;5113022;28;20443;-76
2022/08/11 03:55:27;;;;;;;5.23;3.57;;;;;;;-143.84;65.95;45024.31;5112612;28;20553;-75
2022/08/11 03:58:30;;;;;;;3.70;3.50;;;;;;;-143.84;64.89;45030.03;5112895;28;20474;-76
2022/08/11 04:01:22;;;;;;;3.40;3.20;;;;;;;-143.84;64.05;45020.50;5112811;28;20431;-76
2022/08/11 04:04:19;;;;;;;3.90;3.50;;;;;;;-143.84;63.26;45007.19;5112967;28;20447;-76
2022/08/11 04:07:19;;;;;;;4.37;3.30;;;;;;;-143.84;62.67;45024.31;5110111;28;20455;-76
2022/08/11 04:10:18;;;;;;;4.30;3.33;;;;;;;-143.84;61.29;45031.94;5112524;28;20438;-76
2022/08/11 04:13:21;;;;;;;3.70;3.40;;;;;;;-143.84;60.48;45010.97;5109910;28;20455;-76
2022/08/11 04:16:15;;;;;;;3.67;3.37;;;;;;;-143.84;59.57;45005.28;5112512;28;20438;-75
2022/08/11 04:19:21;;;;;;;4.57;4.00;;;;;;;-143.84;59.23;45003.38;5112147;28;20531;-75
2022/08/11 04:22:24;;;;;;;4.10;3.43;;;;;;;-143.84;59.11;45012.88;5112335;28;20466;-76
2022/08/11 04:25:25;;;;;;;5.40;4.47;;;;;;;-143.84;59.53;45003.38;5112142;28;20596;-76
2022/08/11 04:28:22;;;;;;;4.23;3.93;;;;;;;-143.84;60.43;44997.66;5094734;28;20499;-76
2022/08/11 04:31:06;;;;;;;4.90;4.60;;;;;;;-143.84;60.36;44999.56;5112515;28;20439;-77
2022/08/11 04:33:58;;;;;;;6.90;4.50;;;;;;;-143.84;60.29;45014.78;5113177;28;20496;-77
2022/08/11 04:40:02;;;;;;;5.87;4.90;;;;;;;-143.84;61.51;45003.38;5081293;28;20870;-76
2022/08/11 04:43:21;;;;;;;4.80;4.40;;;;;;;-143.84;61.59;44999.56;5112508;28;20920;-77
2022/08/11 04:46:33;;;;;;;6.07;3.80;;;;;;;-143.84;62.26;45003.38;5083142;28;20455;-76
2022/08/11 05:02:33;;;;;;;4.37;3.97;;;;;;;-143.84;64.25;45020.50;5119903;27;20568;-76
2022/08/11 05:05:34;;;;;;;6.53;3.97;;;;;;;-143.84;63.39;45001.47;5111982;28;20443;-77
2022/08/11 05:08:41;;;;;;;4.17;3.87;;;;;;;-143.84;62.09;44993.84;5112506;28;20438;-77
2022/08/11 05:11:34;;;;;;;5.33;3.50;;;;;;;-143.84;61.23;44999.56;5112354;28;20426;-77
2022/08/11 05:37:06;;;;;;;3.03;2.83;;;;;;;-143.84;53.25;44988.13;5111940;28;21139;-77
2022/08/11 05:56:31;;;;;;;6.67;3.33;;;;;;;-143.84;47.00;44961.47;5131426;27;20501;-69
2022/08/11 05:59:00;;;;;;;3.53;3.23;;;;;;;-143.84;46.69;44944.34;5131184;27;20815;-69
2022/08/11 06:01:31;;;;;;;6.73;3.83;;;;;;;-143.84;46.34;44963.38;5130580;27;20958;-69
2022/08/11 06:04:15;;;;;;;2.97;2.77;;;;;;;-143.84;44.44;44929.09;5130973;27;20442;-68
2022/08/11 06:06:51;;;;;;;5.03;3.10;;;;;;;-143.84;45.07;44965.28;5131212;27;20446;-68
2022/08/11 06:09:27;;;;;;;4.40;3.40;;;;;;;-143.84;44.27;44957.66;5130855;27;20516;-69
2022/08/11 06:11:58;;;;;;;6.07;3.10;;;;;;;-143.84;43.86;44951.97;5131108;27;20434;-68
2022/08/11 06:14:27;;;;;;;10.60;3.27;;;;;;;-143.84;43.60;44940.53;5130964;27;21004;-68
2022/08/11 06:16:59;;;;;;;7.30;2.80;;;;;;;-143.84;43.61;44940.53;5130890;27;20502;-69
2022/08/11 06:19:39;;;;;;;9.37;3.20;;;;;;;-143.84;43.14;44915.78;5130593;27;20589;-69
2022/08/11 06:22:10;;;;;;;5.53;2.93;;;;;;;-143.84;42.73;44915.78;5130893;27;20507;-69
2022/08/11 06:24:41;;;;;;;3.10;2.90;;;;;;;-143.84;42.39;44921.50;5130624;27;20523;-68
2022/08/11 06:27:09;;;;;;;4.70;2.97;;;;;;;-143.84;42.04;44932.91;5130929;27;20949;-68
2022/08/11 06:29:40;;;;;;;5.43;2.87;;;;;;;-143.84;41.18;44898.66;5129310;27;20430;-69
2022/08/11 06:32:14;;;;;;;8.33;2.90;;;;;;;-143.84;40.52;44932.91;5128999;27;20468;-68
2022/08/11 06:34:59;;;;;;;6.77;3.40;;;;;;;-143.84;40.43;44931.00;5129434;28;20442;-68
2022/08/11 06:37:42;;;;;;;22.67;3.13;;;;;;;-143.84;39.88;44917.69;5129762;28;20434;-69
2022/08/11 06:40:13;;;;;;;5.10;2.70;;;;;;;-143.84;39.82;44934.81;5129725;28;20452;-70
2022/08/11 06:42:53;;;;;;;2.47;2.27;;;;;;;-143.84;39.66;44902.44;5126477;28;20501;-69
2022/08/11 06:45:38;;;;;;;5.13;2.77;;;;;;;-143.84;38.46;44915.78;5110219;28;20940;-69
2022/08/11 06:48:15;;;;;;;6.63;2.40;;;;;;;-143.84;38.89;44881.50;5110356;28;20446;-69
2022/08/11 06:53:36;;;;;;;2.40;2.30;;;;;;;-143.84;38.51;44915.78;5132230;27;20483;-70
2022/08/11 07:01:45;;;;;;;3.30;1.77;;;;;;;-143.84;37.56;44896.75;5125529;27;20947;-69
2022/08/11 07:04:21;;;;;;;5.93;2.30;;;;;;;-143.84;37.30;44900.53;5115534;27;21394;-69
2022/08/11 07:16:08;;;;;;;3.10;2.30;;;;;;;-143.84;35.45;44875.78;5079594;28;20430;-69
2022/08/11 07:29:51;;;;;;;2.40;2.30;;;;;;;-143.84;35.83;44883.41;5112671;28;20446;-73
2022/08/11 07:32:25;;;;;;;3.00;2.10;;;;;;;-143.84;35.14;44860.56;5112205;28;20435;-72
2022/08/11 07:34:59;;;;;;;2.97;2.77;;;;;;;-143.84;35.67;44860.56;5112369;28;20493;-73
2022/08/11 07:37:32;;;;;;;6.83;2.10;;;;;;;-143.84;35.34;44854.84;5112884;28;20521;-73
2022/08/11 07:40:00;;;;;;;2.27;2.03;;;;;;;-143.84;35.73;44868.19;5112194;28;20451;-72
2022/08/11 07:42:30;;;;;;;4.07;2.30;;;;;;;-143.84;35.29;44883.41;5112027;28;20478;-73
2022/08/11 07:53:19;;;;;;;1.97;1.87;;;;;;;-143.84;35.72;44847.22;5112147;28;20472;-73
2022/08/11 07:55:49;;;;;;;4.53;2.40;;;;;;;-143.84;35.15;44847.22;5125300;27;20544;-73
2022/08/11 08:18:02;;;;;;;3.70;1.77;;;;;;;-143.84;34.20;44870.09;5137712;27;20477;-73
2022/08/11 08:20:38;;;;;;;7.00;2.30;;;;;;;-143.84;33.88;44870.09;5122089;27;21125;-73
2022/08/11 08:23:07;;;;;;;4.63;2.27;;;;;;;-143.84;34.69;44856.75;5120709;27;20564;-73
2022/08/11 08:25:39;;;;;;;3.53;2.27;;;;;;;-143.84;34.71;44873.88;5128525;27;20476;-73
2022/08/11 08:28:10;;;;;;;2.17;1.97;;;;;;;-143.84;34.05;44868.19;5143673;27;20473;-73
2022/08/11 08:30:50;;;;;;;2.13;2.03;;;;;;;-143.84;34.35;44852.94;5144167;27;20456;-72
2022/08/11 08:33:23;;;;;;;5.23;2.00;;;;;;;-143.84;34.45;44860.56;5146023;27;20500;-72
2022/08/11 08:36:10;;;;;;;3.73;2.27;;;;;;;-143.84;34.34;44868.19;5126806;27;20449;-73
2022/08/11 08:38:39;;;;;;;24.70;2.70;;;;;;;-143.84;34.88;44870.09;5139080;27;20539;-72
2022/08/11 08:41:08;;;;;;;3.80;2.00;;;;;;;-143.84;33.97;44856.75;5148461;27;20461;-73
2022/08/11 08:43:37;;;;;;;9.20;2.30;;;;;;;-143.84;34.56;44870.09;5146578;27;20485;-73
2022/08/11 08:46:09;;;;;;;15.70;2.40;;;;;;;-143.84;34.55;44860.56;5122432;27;20453;-73
2022/08/11 08:48:37;;;;;;;5.57;2.00;;;;;;;-143.84;34.10;44854.84;5120389;27;20457;-73
2022/08/11 08:54:05;;;;;;;7.30;2.20;;;;;;;-143.84;33.97;44875.78;5120908;27;20828;-72
2022/08/11 08:56:34;;;;;;;20.13;2.33;;;;;;;-143.84;33.39;44870.09;5118611;27;20451;-72
2022/08/11 08:59:03;;;;;;;2.70;2.10;;;;;;;-143.84;33.51;44862.47;5114188;27;20459;-73
2022/08/11 09:01:36;;;;;;;4.17;2.13;;;;;;;-143.84;34.17;44845.31;5115425;27;20443;-73
2022/08/11 09:04:07;;;;;;;4.90;2.57;;;;;;;-143.84;34.61;44851.03;5116388;27;20845;-72
2022/08/11 09:06:34;;;;;;;2.30;2.10;;;;;;;-143.84;33.67;44849.13;5116474;27;20450;-73
2022/08/11 09:09:02;;;;;;;3.83;2.10;;;;;;;-143.84;33.30;44847.22;5118697;27;20451;-73
2022/08/11 09:14:16;;;;;;;6.10;2.07;;;;;;;-143.84;32.87;44862.47;5129489;27;20439;-73
2022/08/11 09:16:44;;;;;;;4.33;2.20;;;;;;;-143.84;32.40;44849.13;5135536;27;20436;-72
2022/08/11 09:19:16;;;;;;;6.70;2.50;;;;;;;-143.84;32.76;44839.63;5137797;27;20447;-72
2022/08/11 09:21:45;;;;;;;8.30;2.43;;;;;;;-143.84;33.01;44828.19;5136346;27;20509;-72
2022/08/11 09:27:18;;;;;;;5.43;2.30;;;;;;;-143.84;32.83;44837.72;5129596;27;20808;-72
2022/08/11 09:29:47;;;;;;;5.47;3.07;;;;;;;-143.84;33.60;44812.97;5130769;27;20447;-73
2022/08/11 09:32:15;;;;;;;6.20;2.43;;;;;;;-143.84;33.84;44866.28;5131903;27;21339;-73
2022/08/11 09:34:43;;;;;;;3.00;2.80;;;;;;;-143.84;32.52;44851.03;5130156;27;20450;-73
2022/08/11 09:45:28;;;;;;;4.30;2.00;;;;;;;-143.84;33.14;44849.13;5123995;27;20442;-72
2022/08/11 09:47:56;;;;;;;3.57;2.30;;;;;;;-143.84;31.76;44833.91;5122862;27;20454;-73
2022/08/11 09:50:23;;;;;;;3.83;2.20;;;;;;;-143.84;32.10;44837.72;5120819;27;20852;-73
2022/08/11 09:52:51;;;;;;;3.63;1.90;;;;;;;-143.84;31.93;44864.38;5119301;27;20450;-73
2022/08/11 09:55:19;;;;;;;8.50;3.90;;;;;;;-143.84;33.00;44866.28;5118276;27;20459;-73
2022/08/11 10:00:36;;;;;;;8.03;2.00;;;;;;;-143.84;31.56;44843.44;5117465;27;20484;-73
2022/08/11 10:03:08;;;;;;;5.47;2.10;;;;;;;-143.84;32.09;44811.06;5116463;27;20483;-72
2022/08/11 10:08:26;;;;;;;8.40;1.90;;;;;;;-143.84;33.59;44843.44;5118059;27;20496;-71
2022/08/11 10:10:55;;;;;;;5.77;1.67;;;;;;;-143.84;32.32;44824.38;5117463;27;20450;-72
2022/08/11 10:13:26;;;;;;;10.03;1.60;;;;;;;-143.84;32.57;44847.22;5124609;27;20437;-72
2022/08/11 10:15:58;;;;;;;1.70;1.60;;;;;;;-143.84;32.79;44856.75;5144032;27;20449;-72
2022/08/11 10:18:48;;;;;;;4.20;1.70;;;;;;;-143.84;32.59;44837.72;5107295;27;20457;-72
2022/08/11 10:21:27;;;;;;;10.03;1.97;;;;;;;-143.84;32.60;44814.88;5136916;27;20974;-72
2022/08/11 10:26:57;;;;;;;2.20;2.00;;;;;;;-143.84;32.64;44828.19;5117843;27;20935;-72
2022/08/11 10:35:01;;;;;;;3.43;1.90;;;;;;;-143.84;32.09;44851.03;5121280;27;20426;-72
2022/08/11 10:37:35;;;;;;;2.73;2.10;;;;;;;-143.84;31.52;44833.91;5124259;27;20445;-76
2022/08/11 10:40:06;;;;;;;3.73;2.37;;;;;;;-143.84;31.86;44835.81;5121120;27;20478;-76
2022/08/11 10:48:06;;;;;;;7.37;2.13;;;;;;;-143.84;31.56;44805.34;5129324;27;20436;-76
2022/08/11 10:58:53;;;;;;;2.50;1.90;;;;;;;-143.84;31.94;44799.63;5124952;27;20806;-72
2022/08/11 11:01:24;;;;;;;9.63;2.10;;;;;;;-143.84;32.77;44887.22;5127092;27;20891;-71
2022/08/11 11:03:57;;;;;;;2.43;2.20;;;;;;;-143.84;31.51;44856.75;5124841;27;20488;-71
2022/08/11 11:06:32;;;;;;;7.80;1.70;;;;;;;-143.84;31.25;44820.56;5122378;27;20460;-71
2022/08/11 11:09:05;;;;;;;5.10;2.53;;;;;;;-143.84;32.16;44841.53;5131644;27;20585;-71
2022/08/11 11:19:59;;;;;;;2.33;2.10;;;;;;;-143.84;31.46;44843.44;5130538;27;20999;-72
2022/08/11 11:22:38;;;;;;;6.07;2.10;;;;;;;-143.84;31.58;44832.00;5125342;27;20455;-72
2022/08/11 11:25:16;;;;;;;3.07;1.93;;;;;;;-143.84;32.59;44805.34;5124473;27;20501;-72
2022/08/11 11:27:54;;;;;;;3.97;2.13;;;;;;;-143.84;31.52;44807.25;5131949;27;20461;-72
2022/08/11 11:30:27;;;;;;;2.00;1.90;;;;;;;-143.84;31.51;44835.81;5122700;27;20456;-72
2022/08/11 11:33:08;;;;;;;7.33;2.20;;;;;;;-143.84;31.35;44812.97;5135869;27;20950;-72
2022/08/11 11:35:53;;;;;;;6.20;2.77;;;;;;;-143.84;31.41;44828.19;5125004;27;20473;-72
2022/08/11 11:38:21;;;;;;;2.10;1.90;;;;;;;-143.84;30.96;44849.13;5140989;27;20447;-72
2022/08/11 11:41:23;;;;;;;4.73;2.07;;;;;;;-143.84;30.96;44851.03;5141647;27;20443;-72
2022/08/11 11:43:37;;;;;;;2.30;1.97;;;;;;;-143.84;31.77;44845.31;5113978;27;20547;-72
2022/08/11 11:46:08;;;;;;;3.40;1.87;;;;;;;-143.84;31.70;44812.97;5115819;27;20454;-72
2022/08/11 11:48:36;;;;;;;4.20;1.87;;;;;;;-143.84;32.25;44843.44;5116085;27;20449;-72
2022/08/11 11:51:06;;;;;;;2.37;2.17;;;;;;;-143.84;32.48;44837.72;5149431;27;20449;-72
2022/08/11 11:53:34;;;;;;;2.23;2.03;;;;;;;-143.84;31.21;44837.72;5150233;27;20452;-72
2022/08/11 11:56:03;;;;;;;5.23;2.37;;;;;;;-143.84;31.66;44833.91;5120194;27;20449;-72
2022/08/11 12:01:18;;;;;;;8.63;1.90;;;;;;;-143.84;32.43;44830.09;5131207;27;20937;-72
2022/08/11 12:03:49;;;;;;;2.20;2.00;;;;;;;-143.84;32.46;44837.72;5149918;27;20826;-72
2022/08/11 12:06:21;;;;;;;4.80;2.57;;;;;;;-143.84;33.15;44843.44;5145025;27;20449;-72
2022/08/11 12:08:50;;;;;;;2.37;2.03;;;;;;;-143.84;32.73;44811.06;5137574;27;20442;-72
2022/08/11 12:14:07;;;;;;;5.30;1.87;;;;;;;-143.84;31.66;44843.44;5116780;27;20500;-72
2022/08/11 12:16:37;;;;;;;2.70;1.90;;;;;;;-143.84;31.88;44862.47;5129208;27;20451;-72
2022/08/11 12:19:06;;;;;;;3.10;2.63;;;;;;;-143.84;31.42;44805.34;5117959;27;20451;-72
2022/08/11 12:21:36;;;;;;;2.20;1.83;;;;;;;-143.84;31.98;44837.72;5118715;27;20804;-72
2022/08/11 12:29:35;;;;;;;2.73;2.20;;;;;;;-143.84;31.46;44820.56;5135550;27;20526;-72
2022/08/11 12:32:07;;;;;;;1.70;1.60;;;;;;;-143.84;31.06;44856.75;5125945;27;20449;-72
2022/08/11 12:34:34;;;;;;;3.50;2.47;;;;;;;-143.84;30.80;44835.81;5134986;27;20463;-72
2022/08/11 12:37:09;;;;;;;4.60;2.37;;;;;;;-143.84;31.19;44845.31;5126885;27;20437;-72
2022/08/11 12:45:27;;;;;;;31.83;7.30;;;;;;;-143.84;31.91;44820.56;5130281;27;20504;-72
2022/08/11 12:53:43;;;;;;;8.27;2.53;;;;;;;-143.84;32.73;44818.66;5134317;27;20452;-72
2022/08/11 13:07:18;;;;;;;3.03;2.33;;;;;;;-143.84;31.82;44858.66;5138818;27;20887;-72
2022/08/11 13:09:47;;;;;;;6.47;2.43;;;;;;;-143.84;31.91;44830.09;5137572;27;20445;-72
2022/08/11 13:15:00;;;;;;;7.30;2.40;;;;;;;-143.84;32.03;44830.09;5123084;27;20429;-72
2022/08/11 13:17:29;;;;;;;5.40;2.00;;;;;;;-143.84;31.70;44847.22;5125974;27;20453;-72
2022/08/11 13:19:59;;;;;;;3.20;2.13;;;;;;;-143.84;31.95;44852.94;5140255;27;20441;-72
2022/08/11 13:22:27;;;;;;;2.53;2.33;;;;;;;-143.84;31.69;44845.31;5147102;27;20866;-72
2022/08/11 13:24:58;;;;;;;6.27;1.90;;;;;;;-143.84;31.66;44809.16;5145284;27;20589;-72
2022/08/11 13:27:26;;;;;;;2.70;2.50;;;;;;;-143.84;31.04;44868.19;5122802;27;20454;-72
2022/08/11 13:31:09;;;;;;;2.40;2.23;;;;;;;-143.84;31.38;44832.00;5123850;27;20496;-72
2022/08/11 13:32:44;;;;;;;2.10;2.00;;;;;;;-143.84;31.53;44856.75;5122585;27;20434;-72
2022/08/11 13:35:14;;;;;;;2.30;2.10;;;;;;;-143.84;31.69;44847.22;5110447;27;20450;-72
2022/08/11 13:37:44;;;;;;;7.40;2.20;;;;;;;-143.84;31.72;44862.47;5111889;27;20504;-72
2022/08/11 13:40:16;;;;;;;2.40;2.10;;;;;;;-143.84;32.06;44820.56;5113005;27;20446;-72
2022/08/11 13:42:45;;;;;;;3.40;2.50;;;;;;;-143.84;32.80;44845.31;5122399;27;20447;-76
2022/08/11 13:45:12;;;;;;;7.00;2.33;;;;;;;-143.84;33.11;44828.19;5121959;27;20478;-76
2022/08/11 13:47:41;;;;;;;8.70;2.50;;;;;;;-143.84;32.42;44856.75;5134685;27;20450;-76
2022/08/11 13:50:12;;;;;;;8.40;2.20;;;;;;;-143.84;32.83;44864.38;5128523;27;20451;-76
2022/08/11 13:52:40;;;;;;;2.50;2.30;;;;;;;-143.84;32.98;44860.56;5123975;27;20430;-76
2022/08/11 13:55:20;;;;;;;4.03;2.23;;;;;;;-143.84;32.63;44852.94;5125436;27;20459;-76
2022/08/11 13:57:52;;;;;;;3.50;2.37;;;;;;;-143.84;32.79;44852.94;5128751;27;20453;-76
2022/08/11 14:00:21;;;;;;;4.93;2.07;;;;;;;-143.84;32.39;44856.75;5123287;27;20537;-76
2022/08/11 14:02:51;;;;;;;4.77;2.40;;;;;;;-143.84;32.31;44832.00;5130210;27;21155;-76
2022/08/11 14:05:25;;;;;;;2.87;2.07;;;;;;;-143.84;32.62;44862.47;5126756;27;20480;-77
2022/08/11 14:07:55;;;;;;;3.80;2.60;;;;;;;-143.84;32.93;44871.97;5127002;27;20456;-77
2022/08/11 14:10:28;;;;;;;2.53;2.30;;;;;;;-143.84;32.92;44871.97;5129932;27;20865;-76
2022/08/11 14:15:48;;;;;;;4.70;2.20;;;;;;;-143.84;32.98;44839.63;5131954;27;20586;-77
2022/08/11 14:18:20;;;;;;;9.67;2.47;;;;;;;-143.84;32.61;44866.28;5134802;27;20453;-77
2022/08/11 14:23:40;;;;;;;3.50;2.20;;;;;;;-143.84;32.57;44879.59;5126358;27;20481;-76
2022/08/11 14:26:26;;;;;;;4.63;3.13;;;;;;;-143.84;32.18;44881.50;5128015;27;20445;-76
2022/08/11 14:29:00;;;;;;;4.90;2.03;;;;;;;-143.84;32.40;44841.53;5135097;27;20456;-76
2022/08/11 14:31:31;;;;;;;4.10;2.27;;;;;;;-143.84;32.83;44868.19;5123520;27;20442;-76
2022/08/11 14:34:02;;;;;;;3.43;2.47;;;;;;;-143.84;33.10;44847.22;5125169;27;20967;-76
2022/08/11 14:36:32;;;;;;;12.23;2.30;;;;;;;-143.84;33.09;44864.38;5128586;27;20482;-76
2022/08/11 14:39:03;;;;;;;9.97;2.37;;;;;;;-143.84;33.31;44885.31;5129240;27;20470;-75
2022/08/11 14:47:05;;;;;;;2.33;2.20;;;;;;;-143.84;33.10;44879.59;5130352;27;20574;-76
2022/08/11 14:49:34;;;;;;;2.37;2.17;;;;;;;-143.84;33.03;44866.28;5126090;27;20517;-76
2022/08/11 14:52:04;;;;;;;2.77;2.57;;;;;;;-143.84;33.59;44917.69;5131033;27;20514;-76
2022/08/11 14:57:19;;;;;;;6.03;2.90;;;;;;;-143.84;33.60;44875.78;5131413;27;20572;-76
2022/08/11 14:59:50;;;;;;;3.07;2.23;;;;;;;-143.84;33.34;44843.44;5135088;27;20451;-76
2022/08/11 15:05:06;;;;;;;2.60;2.40;;;;;;;-143.84;33.59;44889.13;5137635;27;21039;-76
2022/08/11 15:07:35;;;;;;;6.97;2.40;;;;;;;-143.84;33.56;44854.84;5127135;27;20443;-77
2022/08/11 15:10:05;;;;;;;3.23;2.47;;;;;;;-143.84;33.76;44858.66;5127679;27;20500;-76
2022/08/11 15:12:35;;;;;;;7.63;2.90;;;;;;;-143.84;33.25;44856.75;5122070;27;20523;-76
2022/08/11 15:17:53;;;;;;;5.77;2.23;;;;;;;-143.84;33.15;44868.19;5117289;27;20796;-77
2022/08/11 15:25:55;;;;;;;2.70;2.37;;;;;;;-143.84;33.67;44862.47;5131265;27;20528;-76
2022/08/11 15:48:15;;;;;;;2.90;2.13;;;;;;;-143.84;34.02;44885.31;5136306;27;20503;-76
2022/08/11 15:50:52;;;;;;;11.97;1.93;;;;;;;-143.84;33.74;44879.59;5137055;27;20518;-77
2022/08/11 15:53:29;;;;;;;5.10;2.27;;;;;;;-143.84;33.48;44879.59;5121077;27;21221;-76
2022/08/11 15:55:57;;;;;;;5.90;2.03;;;;;;;-143.84;34.17;44870.09;5124690;27;21019;-76
2022/08/11 16:04:13;;;;;;;2.57;2.37;;;;;;;-143.84;33.73;44881.50;5120761;27;20507;-77
2022/08/11 16:06:50;;;;;;;2.70;2.00;;;;;;;-143.84;33.64;44875.78;5128804;27;20484;-76
2022/08/11 16:09:23;;;;;;;3.30;2.20;;;;;;;-143.84;33.71;44885.31;5141463;27;20443;-77
2022/08/11 16:11:52;;;;;;;2.50;2.30;;;;;;;-143.84;34.25;44892.94;5123080;27;20449;-78
2022/08/11 16:17:10;;;;;;;6.50;2.40;;;;;;;-143.84;33.97;44885.31;5126097;27;20928;-78
2022/08/11 16:19:42;;;;;;;3.20;2.47;;;;;;;-143.84;34.16;44889.13;5133858;27;20843;-77
2022/08/11 16:22:12;;;;;;;10.37;2.30;;;;;;;-143.84;34.12;44885.31;5130540;27;20479;-78
2022/08/11 16:24:44;;;;;;;2.13;2.03;;;;;;;-143.84;34.51;44877.69;5121106;27;20485;-78
2022/08/11 16:27:13;;;;;;;8.43;2.10;;;;;;;-143.84;34.17;44898.66;5131139;27;20521;-81
2022/08/11 16:29:44;;;;;;;3.30;1.80;;;;;;;-143.84;34.24;44879.59;5130617;27;20446;-77
2022/08/11 16:32:19;;;;;;;2.47;2.27;;;;;;;-143.84;34.05;44898.66;5122169;27;20530;-77
2022/08/11 16:40:24;;;;;;;6.90;1.93;;;;;;;-143.84;34.66;44877.69;5123074;27;20426;-78
2022/08/11 16:48:27;;;;;;;2.60;2.20;;;;;;;-143.84;35.03;44892.94;5125946;27;20486;-80
2022/08/11 16:50:59;;;;;;;3.83;2.50;;;;;;;-143.84;34.88;44885.31;5119355;27;20471;-80
2022/08/11 16:53:29;;;;;;;3.30;2.50;;;;;;;-143.84;34.84;44879.59;5129382;27;20546;-80